Time;durP1;ratioP1;P1;durP2;ratioP2;P2;SDS_P1;SDS_P2;PMS_P1;PMS_P2;Temp;Humidity;BMP_temperature;BMP_pressure;BME280_temperature;BME280_humidity;BME280_pressure;Samples;Min_cycle;Max_cycle;Signal;HPM_P1;HPM_P2
2020/12/30 00:00:11;;;;;;;2.92;1.65;;;5.50;81.90;;;;;;10040267;28;20098;-62
2020/12/30 00:05:06;;;;;;;3.15;1.50;;;5.40;82.00;;;;;;10038947;28;20040;-62
2020/12/30 00:09:56;;;;;;;2.03;1.48;;;5.40;82.20;;;;;;10036942;28;20033;-62
2020/12/30 00:14:47;;;;;;;2.47;1.50;;;5.40;82.30;;;;;;10038280;28;20036;-63
2020/12/30 00:19:37;;;;;;;2.67;1.40;;;5.50;81.90;;;;;;10036342;28;20096;-62
2020/12/30 00:24:28;;;;;;;1.40;1.10;;;5.50;81.90;;;;;;10041399;28;20045;-62
2020/12/30 00:29:18;;;;;;;1.80;1.05;;;5.50;82.30;;;;;;10036006;28;20034;-63
2020/12/30 00:34:09;;;;;;;2.38;1.33;;;5.60;82.10;;;;;;10040121;28;20037;-63
2020/12/30 00:38:59;;;;;;;1.33;1.00;;;5.60;81.90;;;;;;10044912;28;20025;-62
2020/12/30 00:43:50;;;;;;;2.60;1.52;;;5.60;82.20;;;;;;10043228;28;20067;-62
2020/12/30 00:48:40;;;;;;;2.83;1.25;;;5.50;82.20;;;;;;10041428;28;20561;-62
2020/12/30 00:53:31;;;;;;;2.88;1.20;;;5.50;82.30;;;;;;10040683;28;20447;-62
2020/12/30 00:58:21;;;;;;;2.75;1.15;;;5.40;82.20;;;;;;10036082;28;20037;-62
2020/12/30 01:03:12;;;;;;;3.22;1.23;;;5.50;82.10;;;;;;10041868;28;20063;-63
2020/12/30 01:08:03;;;;;;;2.05;1.20;;;5.40;82.00;;;;;;10039879;28;20414;-62
2020/12/30 01:12:53;;;;;;;1.08;0.77;;;5.40;81.80;;;;;;10038839;28;20025;-62
2020/12/30 01:17:44;;;;;;;3.13;1.35;;;5.40;81.90;;;;;;10040430;28;20029;-62
2020/12/30 01:22:34;;;;;;;2.78;1.40;;;5.30;82.40;;;;;;10036593;28;20068;-63
2020/12/30 01:27:25;;;;;;;2.95;1.08;;;5.30;82.30;;;;;;10039671;28;20075;-62
2020/12/30 01:32:18;;;;;;;2.75;1.30;;;5.40;81.90;;;;;;10039838;28;20029;-62
2020/12/30 01:37:09;;;;;;;1.23;1.10;;;5.40;81.90;;;;;;10033546;28;20486;-62
2020/12/30 01:41:59;;;;;;;2.55;1.13;;;5.40;82.00;;;;;;10035592;28;20033;-62
2020/12/30 01:46:51;;;;;;;3.22;1.52;;;5.30;82.20;;;;;;10036072;28;20048;-62
2020/12/30 01:51:42;;;;;;;2.60;1.02;;;5.40;82.30;;;;;;10035777;28;20301;-63
2020/12/30 01:56:33;;;;;;;0.82;0.80;;;5.50;82.10;;;;;;10035477;28;20396;-62
2020/12/30 02:01:28;;;;;;;1.75;0.93;;;5.50;82.30;;;;;;10038836;28;20029;-62
2020/12/30 02:06:19;;;;;;;3.00;1.13;;;5.40;82.50;;;;;;10037087;28;20108;-62
2020/12/30 02:11:09;;;;;;;3.63;0.95;;;5.40;82.60;;;;;;10033671;28;20056;-62
2020/12/30 02:16:01;;;;;;;1.63;0.80;;;5.30;82.40;;;;;;10041186;28;20484;-62
2020/12/30 02:20:52;;;;;;;2.03;0.82;;;5.30;82.70;;;;;;10034762;28;20057;-62
2020/12/30 02:25:44;;;;;;;1.70;1.02;;;5.30;82.90;;;;;;10031959;28;20481;-62
2020/12/30 02:30:35;;;;;;;3.85;1.23;;;5.40;82.70;;;;;;10037261;28;20056;-63
2020/12/30 02:35:26;;;;;;;2.55;1.05;;;5.40;82.70;;;;;;10032803;28;21032;-62
2020/12/30 02:40:18;;;;;;;2.05;0.85;;;5.40;82.80;;;;;;10046788;28;20087;-62
2020/12/30 02:45:09;;;;;;;1.67;0.85;;;5.50;82.60;;;;;;10044569;28;20777;-62
2020/12/30 02:50:01;;;;;;;1.90;1.10;;;5.40;82.90;;;;;;10048217;28;20024;-63
2020/12/30 02:54:52;;;;;;;2.90;0.93;;;5.40;82.90;;;;;;10043947;28;20029;-62
2020/12/30 02:59:42;;;;;;;3.50;1.13;;;5.30;82.80;;;;;;10036409;28;20470;-62
2020/12/30 03:04:33;;;;;;;1.33;0.80;;;5.30;82.80;;;;;;10040283;28;20033;-62
2020/12/30 03:09:23;;;;;;;4.18;1.15;;;5.30;82.80;;;;;;10039187;28;20351;-62
2020/12/30 03:14:14;;;;;;;3.60;1.30;;;5.30;82.80;;;;;;10039165;28;20056;-63
2020/12/30 03:19:05;;;;;;;2.72;0.88;;;5.40;82.60;;;;;;10042407;28;20045;-61
2020/12/30 03:23:55;;;;;;;2.53;0.88;;;5.30;82.70;;;;;;10044856;28;20041;-61
2020/12/30 03:28:46;;;;;;;1.63;1.00;;;5.40;82.70;;;;;;10042321;28;20434;-61
2020/12/30 03:33:37;;;;;;;2.92;1.30;;;5.40;82.40;;;;;;10038293;28;20454;-60
2020/12/30 03:38:27;;;;;;;3.45;1.40;;;5.40;82.60;;;;;;10041990;28;20032;-61
2020/12/30 03:43:18;;;;;;;2.13;1.55;;;5.40;82.50;;;;;;10044749;28;20036;-60
2020/12/30 03:48:10;;;;;;;3.25;1.25;;;5.30;82.70;;;;;;10042639;28;20025;-60
2020/12/30 03:53:00;;;;;;;3.50;1.40;;;5.30;82.80;;;;;;10040435;28;20450;-60
2020/12/30 03:57:51;;;;;;;2.05;1.10;;;5.30;82.70;;;;;;10039293;28;20107;-61
2020/12/30 04:02:41;;;;;;;2.63;1.08;;;5.20;82.80;;;;;;10044244;28;20052;-62
2020/12/30 04:07:32;;;;;;;1.63;1.02;;;5.10;82.80;;;;;;10038429;28;20030;-61
2020/12/30 04:12:22;;;;;;;1.85;1.33;;;5.10;82.90;;;;;;10041718;28;20091;-60
2020/12/30 04:17:13;;;;;;;2.38;1.15;;;5.10;82.80;;;;;;10039707;28;20388;-61
2020/12/30 04:22:03;;;;;;;2.80;1.48;;;5.10;82.60;;;;;;10041554;28;20046;-60
2020/12/30 04:26:54;;;;;;;1.52;0.93;;;5.10;82.70;;;;;;10040105;28;20412;-61
2020/12/30 04:31:44;;;;;;;1.73;1.17;;;5.10;82.60;;;;;;10037366;28;20037;-60
2020/12/30 04:36:36;;;;;;;2.78;1.05;;;5.10;82.30;;;;;;10039747;28;20446;-61
2020/12/30 04:41:35;;;;;;;2.45;1.33;;;5.10;82.60;;;;;;10043849;28;20034;-60
2020/12/30 04:46:27;;;;;;;0.90;0.90;;;5.00;82.70;;;;;;10039483;28;20041;-62
2020/12/30 04:51:19;;;;;;;1.27;1.05;;;5.00;82.90;;;;;;10039142;28;20124;-61
2020/12/30 04:56:15;;;;;;;0.85;0.77;;;5.00;82.70;;;;;;10032023;28;20472;-60
2020/12/30 05:01:09;;;;;;;2.80;0.93;;;5.00;82.90;;;;;;10038446;28;20029;-60
2020/12/30 05:06:03;;;;;;;1.73;0.90;;;4.90;82.60;;;;;;10040408;28;20620;-60
2020/12/30 05:10:54;;;;;;;3.65;0.95;;;4.90;82.80;;;;;;10034359;28;20040;-60
2020/12/30 05:15:44;;;;;;;3.15;1.02;;;4.80;83.30;;;;;;10039980;28;20700;-60
2020/12/30 05:20:37;;;;;;;1.75;1.02;;;4.80;82.80;;;;;;10035814;28;20049;-60
2020/12/30 05:25:27;;;;;;;2.22;0.90;;;4.70;82.90;;;;;;10038847;28;20103;-60
2020/12/30 05:30:20;;;;;;;3.00;1.00;;;4.70;83.00;;;;;;10036851;28;20025;-60
2020/12/30 05:35:10;;;;;;;0.98;0.60;;;4.70;83.20;;;;;;10037234;28;20040;-61
2020/12/30 05:40:03;;;;;;;1.60;0.77;;;4.60;83.30;;;;;;10035768;28;20029;-60
2020/12/30 05:44:57;;;;;;;1.02;0.65;;;4.60;83.10;;;;;;10040545;28;20479;-60
2020/12/30 05:49:49;;;;;;;2.47;0.82;;;4.60;83.20;;;;;;10032297;28;20563;-61
2020/12/30 05:54:46;;;;;;;2.15;1.35;;;4.60;83.80;;;;;;10037866;28;20088;-60
2020/12/30 05:59:38;;;;;;;1.65;0.70;;;4.60;83.20;;;;;;10034896;28;20038;-61
2020/12/30 06:04:29;;;;;;;1.33;0.60;;;4.60;83.20;;;;;;10038001;28;20415;-60
2020/12/30 06:09:20;;;;;;;1.05;0.70;;;4.70;83.30;;;;;;10038567;28;20033;-60
2020/12/30 06:14:14;;;;;;;1.10;0.70;;;4.60;83.40;;;;;;10043660;28;20032;-61
2020/12/30 06:19:05;;;;;;;1.20;0.75;;;4.70;83.50;;;;;;10044307;28;20053;-61
2020/12/30 06:23:56;;;;;;;3.00;0.80;;;4.80;83.40;;;;;;10039962;28;20286;-60
2020/12/30 06:28:49;;;;;;;1.23;0.70;;;4.80;83.40;;;;;;10045070;28;20030;-60
2020/12/30 06:33:40;;;;;;;0.90;0.90;;;4.90;83.20;;;;;;10040085;28;20037;-60
2020/12/30 06:38:30;;;;;;;0.82;0.60;;;4.90;83.10;;;;;;10045227;28;20083;-62
2020/12/30 06:43:39;;;;;;;0.68;0.68;;;5.00;83.20;;;;;;10045569;28;20041;-63
2020/12/30 06:48:30;;;;;;;1.45;0.60;;;4.90;83.20;;;;;;10045044;28;20029;-63
2020/12/30 06:53:24;;;;;;;1.23;1.00;;;5.00;83.10;;;;;;10045854;28;20034;-62
2020/12/30 06:58:43;;;;;;;3.80;0.85;;;5.00;82.90;;;;;;10045965;28;20025;-62
2020/12/30 07:03:34;;;;;;;0.85;0.68;;;5.10;83.00;;;;;;10048224;28;20071;-62
2020/12/30 07:08:38;;;;;;;2.97;0.75;;;5.10;83.00;;;;;;10043450;28;20034;-63
2020/12/30 07:13:42;;;;;;;1.02;0.77;;;5.00;83.30;;;;;;10041243;28;20022;-63
2020/12/30 07:18:33;;;;;;;1.55;0.80;;;5.00;83.20;;;;;;10044845;28;20045;-63
2020/12/30 07:23:23;;;;;;;1.98;0.75;;;5.00;83.10;;;;;;10039852;28;20541;-62
2020/12/30 07:28:15;;;;;;;1.45;0.85;;;5.20;83.00;;;;;;10043210;28;20495;-62
2020/12/30 07:33:07;;;;;;;1.42;0.90;;;5.20;82.80;;;;;;10042548;28;20507;-63
2020/12/30 07:38:00;;;;;;;1.13;0.50;;;5.20;82.80;;;;;;10041338;28;20025;-63
2020/12/30 07:42:59;;;;;;;1.63;0.88;;;5.10;82.70;;;;;;10045743;28;20022;-63
2020/12/30 07:47:49;;;;;;;1.02;0.70;;;5.00;82.90;;;;;;10038537;28;20547;-63
2020/12/30 07:52:40;;;;;;;1.52;0.95;;;5.00;83.00;;;;;;10041082;28;20034;-63
2020/12/30 07:57:31;;;;;;;2.40;1.00;;;5.00;83.00;;;;;;10039026;28;20103;-63
2020/12/30 08:02:24;;;;;;;1.20;0.63;;;5.00;82.80;;;;;;10042210;28;20067;-63
2020/12/30 08:07:16;;;;;;;1.30;0.47;;;5.00;82.70;;;;;;10038601;28;20017;-62
2020/12/30 08:12:14;;;;;;;1.88;0.75;;;5.00;82.60;;;;;;10040573;28;20036;-62
2020/12/30 08:17:07;;;;;;;0.90;0.65;;;5.10;82.60;;;;;;10043886;28;20083;-62
2020/12/30 08:22:08;;;;;;;2.47;1.13;;;5.10;82.60;;;;;;10040749;28;20048;-60
2020/12/30 08:27:01;;;;;;;1.05;0.77;;;5.20;82.80;;;;;;10036674;28;20062;-63
2020/12/30 08:31:55;;;;;;;1.50;1.08;;;5.20;82.60;;;;;;10038280;28;20168;-63
2020/12/30 08:36:49;;;;;;;4.22;1.23;;;5.30;82.50;;;;;;10044638;28;20029;-62
2020/12/30 08:41:48;;;;;;;1.45;0.90;;;5.20;82.60;;;;;;10042371;28;20128;-63
2020/12/30 08:46:41;;;;;;;2.80;1.33;;;5.40;82.80;;;;;;10043952;28;20457;-63
2020/12/30 08:51:33;;;;;;;1.50;1.08;;;5.40;82.70;;;;;;10034332;28;20040;-62
2020/12/30 08:56:24;;;;;;;1.85;1.23;;;5.50;82.60;;;;;;10040425;28;20028;-63
2020/12/30 09:01:26;;;;;;;2.92;1.20;;;5.60;82.40;;;;;;10034634;28;20021;-63
2020/12/30 09:06:29;;;;;;;3.47;1.98;;;5.70;82.30;;;;;;10035175;28;20029;-63
2020/12/30 09:11:20;;;;;;;1.40;1.20;;;5.80;81.90;;;;;;10032534;28;20034;-63
2020/12/30 09:16:11;;;;;;;1.80;1.15;;;5.90;81.80;;;;;;10039186;28;20029;-63
2020/12/30 09:21:01;;;;;;;3.38;2.05;;;5.90;81.50;;;;;;10035339;28;20145;-63
2020/12/30 09:25:52;;;;;;;1.85;1.10;;;5.90;81.60;;;;;;10038380;28;20084;-63
2020/12/30 09:30:43;;;;;;;1.98;0.90;;;5.80;81.80;;;;;;10036949;28;20041;-63
2020/12/30 09:35:34;;;;;;;3.58;1.13;;;5.90;81.70;;;;;;10035946;28;20083;-63
2020/12/30 09:40:26;;;;;;;2.20;1.23;;;6.00;81.80;;;;;;10034574;28;20030;-63
2020/12/30 09:45:20;;;;;;;1.17;0.82;;;6.00;81.60;;;;;;10042164;28;20021;-62
2020/12/30 09:50:13;;;;;;;4.25;1.40;;;6.00;81.80;;;;;;10036534;28;20082;-63
2020/12/30 09:55:05;;;;;;;1.77;0.88;;;6.10;81.70;;;;;;10040969;28;20025;-62
2020/12/30 09:59:56;;;;;;;2.55;1.23;;;6.10;81.40;;;;;;10034233;28;20111;-63
2020/12/30 10:04:47;;;;;;;1.55;1.17;;;6.20;81.30;;;;;;10038336;28;20447;-62
2020/12/30 10:09:39;;;;;;;2.63;1.27;;;6.20;81.30;;;;;;10034362;28;20037;-63
2020/12/30 10:14:29;;;;;;;2.90;1.20;;;6.30;81.30;;;;;;10033158;28;20491;-62
2020/12/30 10:19:20;;;;;;;3.08;1.17;;;6.50;81.00;;;;;;10036508;28;20129;-62
2020/12/30 10:24:11;;;;;;;3.05;1.35;;;6.50;80.70;;;;;;10035201;28;20495;-63
2020/12/30 10:29:01;;;;;;;4.20;2.45;;;6.60;80.40;;;;;;10036561;28;20033;-62
2020/12/30 10:33:52;;;;;;;2.20;1.35;;;6.60;80.50;;;;;;10039033;28;20037;-62
2020/12/30 10:38:43;;;;;;;2.90;1.35;;;6.50;80.60;;;;;;10037953;28;20491;-63
2020/12/30 10:43:34;;;;;;;1.27;1.10;;;6.50;80.80;;;;;;10032047;28;20073;-63
2020/12/30 10:48:24;;;;;;;2.70;1.52;;;6.50;80.50;;;;;;10042974;28;20028;-63
2020/12/30 10:53:15;;;;;;;3.55;1.50;;;6.60;80.40;;;;;;10038593;28;20035;-63
2020/12/30 10:58:05;;;;;;;3.40;1.60;;;6.60;80.00;;;;;;10044214;28;20030;-62
2020/12/30 11:02:56;;;;;;;1.23;1.05;;;6.60;79.90;;;;;;10048631;28;20099;-62
2020/12/30 11:07:46;;;;;;;1.77;1.15;;;6.70;80.10;;;;;;10044899;28;20030;-63
2020/12/30 11:12:37;;;;;;;1.02;0.73;;;6.60;80.10;;;;;;10045040;28;20720;-63
2020/12/30 11:17:28;;;;;;;2.13;1.10;;;6.60;80.10;;;;;;10050848;28;20124;-63
2020/12/30 11:22:18;;;;;;;1.85;1.17;;;6.70;79.80;;;;;;10044707;28;20068;-63
2020/12/30 11:27:09;;;;;;;3.83;1.45;;;6.60;79.90;;;;;;10048551;28;20021;-63
2020/12/30 11:31:59;;;;;;;2.22;1.15;;;6.50;79.70;;;;;;10042234;28;20071;-63
2020/12/30 11:36:52;;;;;;;3.20;2.00;;;6.60;79.70;;;;;;10044862;28;20037;-63
2020/12/30 11:41:43;;;;;;;2.40;1.38;;;6.70;79.60;;;;;;10044086;28;20699;-63
2020/12/30 11:46:33;;;;;;;2.95;1.90;;;6.80;79.30;;;;;;10048248;28;20151;-63
2020/12/30 11:51:24;;;;;;;1.48;1.15;;;6.90;79.30;;;;;;10043687;28;20041;-63
2020/12/30 11:56:30;;;;;;;4.57;1.60;;;6.90;79.10;;;;;;10046099;28;20033;-62
2020/12/30 12:01:21;;;;;;;3.92;1.42;;;6.60;79.60;;;;;;10045299;28;20680;-60
2020/12/30 12:06:11;;;;;;;1.63;1.15;;;6.70;79.50;;;;;;10043455;28;20045;-62
2020/12/30 12:11:02;;;;;;;1.83;1.05;;;6.80;79.20;;;;;;10041500;28;20030;-62
2020/12/30 12:15:53;;;;;;;2.25;1.60;;;7.10;79.10;;;;;;10043882;28;20025;-63
2020/12/30 12:20:43;;;;;;;1.65;1.25;;;7.00;78.90;;;;;;10040017;28;20053;-63
2020/12/30 12:25:34;;;;;;;1.75;1.20;;;7.20;79.00;;;;;;10045393;28;20096;-63
2020/12/30 12:30:25;;;;;;;2.30;1.92;;;7.40;78.70;;;;;;10043442;28;20044;-63
2020/12/30 12:35:15;;;;;;;3.08;1.60;;;7.50;78.40;;;;;;10040956;28;20037;-63
2020/12/30 12:40:06;;;;;;;5.03;1.35;;;7.50;78.60;;;;;;10044654;28;20033;-63
2020/12/30 12:44:56;;;;;;;2.78;1.30;;;7.40;78.80;;;;;;10044236;28;20372;-62
2020/12/30 12:49:47;;;;;;;3.13;1.08;;;7.30;78.80;;;;;;10039570;28;20069;-63
2020/12/30 12:54:38;;;;;;;3.00;1.67;;;7.20;79.00;;;;;;10040841;28;20029;-63
2020/12/30 12:59:28;;;;;;;1.15;1.02;;;7.20;78.60;;;;;;10041966;28;20407;-63
2020/12/30 13:04:20;;;;;;;6.47;1.35;;;7.20;78.70;;;;;;10043067;28;20388;-63
2020/12/30 13:09:11;;;;;;;3.40;1.70;;;7.30;78.50;;;;;;10043495;28;20044;-63
2020/12/30 13:14:01;;;;;;;1.55;1.17;;;7.40;78.70;;;;;;10041723;28;20034;-63
2020/12/30 13:18:52;;;;;;;1.40;0.95;;;7.50;78.20;;;;;;10043523;28;20102;-63
2020/12/30 13:23:43;;;;;;;3.90;1.05;;;7.50;77.50;;;;;;10038572;28;20064;-63
2020/12/30 13:28:34;;;;;;;2.20;0.95;;;7.50;77.70;;;;;;10043317;28;20724;-63
2020/12/30 13:33:25;;;;;;;1.65;0.70;;;7.30;77.60;;;;;;10040253;28;20029;-63
2020/12/30 13:38:16;;;;;;;1.08;0.60;;;7.20;77.10;;;;;;10042532;28;20404;-63
2020/12/30 13:43:07;;;;;;;1.73;1.00;;;7.10;76.70;;;;;;10038564;28;20052;-62
2020/12/30 13:47:58;;;;;;;0.73;0.60;;;7.00;76.20;;;;;;10045572;28;20037;-64
2020/12/30 13:52:48;;;;;;;2.47;1.02;;;7.00;76.10;;;;;;10043182;28;20022;-63
2020/12/30 13:57:39;;;;;;;2.08;0.95;;;7.00;75.70;;;;;;10043516;28;20029;-64
2020/12/30 14:02:29;;;;;;;0.80;0.73;;;6.90;75.60;;;;;;10039986;28;20768;-64
2020/12/30 14:07:20;;;;;;;2.20;1.05;;;7.00;75.40;;;;;;10042612;28;20161;-64
2020/12/30 14:12:11;;;;;;;1.35;0.73;;;7.00;75.10;;;;;;10039374;28;20033;-62
2020/12/30 14:17:01;;;;;;;1.15;0.50;;;7.00;74.60;;;;;;10041888;28;20055;-63
2020/12/30 14:21:52;;;;;;;1.17;0.77;;;7.10;74.00;;;;;;10040866;28;20054;-63
2020/12/30 14:26:43;;;;;;;1.25;0.70;;;7.10;73.70;;;;;;10036321;28;20405;-62
2020/12/30 14:31:33;;;;;;;0.70;0.70;;;7.10;73.30;;;;;;10042379;28;20044;-62
2020/12/30 14:36:25;;;;;;;4.72;0.70;;;7.10;73.20;;;;;;10047063;28;20120;-63
2020/12/30 14:41:16;;;;;;;0.73;0.50;;;7.10;73.10;;;;;;10049961;28;20028;-63
2020/12/30 14:46:07;;;;;;;1.58;1.10;;;7.00;72.90;;;;;;10051361;28;20041;-62
2020/12/30 14:50:57;;;;;;;1.20;0.70;;;7.00;72.90;;;;;;10048125;28;20029;-62
2020/12/30 14:55:48;;;;;;;1.00;0.65;;;7.00;72.70;;;;;;10044625;28;20116;-62
2020/12/30 15:00:38;;;;;;;2.08;1.90;;;7.00;72.60;;;;;;10045137;28;20025;-63
2020/12/30 15:05:31;;;;;;;1.65;1.05;;;7.10;72.60;;;;;;10049646;28;20037;-62
2020/12/30 15:10:22;;;;;;;1.63;0.90;;;7.00;72.60;;;;;;10044703;28;20029;-63
2020/12/30 15:15:12;;;;;;;1.52;0.82;;;6.90;72.70;;;;;;10049651;28;20037;-63
2020/12/30 15:20:03;;;;;;;3.53;0.88;;;6.90;72.70;;;;;;10043665;28;20501;-64
2020/12/30 15:24:54;;;;;;;0.93;0.70;;;6.80;72.80;;;;;;10043318;28;20037;-63
2020/12/30 15:29:44;;;;;;;3.30;1.20;;;6.80;72.70;;;;;;10046108;28;20044;-63
2020/12/30 15:34:35;;;;;;;1.08;0.68;;;6.80;72.50;;;;;;10041899;28;20399;-62
2020/12/30 15:39:26;;;;;;;1.52;0.60;;;6.70;72.60;;;;;;10046876;28;20037;-62
2020/12/30 15:44:17;;;;;;;2.33;1.30;;;6.60;72.50;;;;;;10044574;28;20075;-63
2020/12/30 15:49:08;;;;;;;2.08;0.60;;;6.60;72.50;;;;;;10040268;28;20082;-62
2020/12/30 15:53:58;;;;;;;1.77;0.70;;;6.60;72.40;;;;;;10044479;28;20110;-62
2020/12/30 15:58:49;;;;;;;4.68;1.27;;;6.50;72.50;;;;;;10041826;28;20553;-62
2020/12/30 16:03:39;;;;;;;3.42;1.52;;;6.50;72.50;;;;;;10044984;28;20025;-63
2020/12/30 16:08:31;;;;;;;1.85;1.27;;;6.40;72.40;;;;;;10046451;28;20029;-63
2020/12/30 16:13:22;;;;;;;1.65;1.05;;;6.40;72.40;;;;;;10046573;28;20171;-63
2020/12/30 16:18:12;;;;;;;2.67;1.55;;;6.40;72.20;;;;;;10044908;28;20557;-63
2020/12/30 16:23:03;;;;;;;2.63;1.52;;;6.40;72.20;;;;;;10045694;28;20049;-63
2020/12/30 16:27:54;;;;;;;2.47;1.50;;;6.50;72.30;;;;;;10043690;28;20025;-63
2020/12/30 16:32:45;;;;;;;2.58;1.67;;;6.40;72.20;;;;;;10046592;28;20029;-63
2020/12/30 16:37:36;;;;;;;4.22;1.90;;;6.40;72.10;;;;;;10041428;28;20030;-64
2020/12/30 16:42:26;;;;;;;1.98;1.33;;;6.40;72.20;;;;;;10044545;28;20029;-63
2020/12/30 16:47:17;;;;;;;2.85;1.60;;;6.40;72.20;;;;;;10042686;28;20403;-63
2020/12/30 16:52:07;;;;;;;5.88;1.70;;;6.40;72.20;;;;;;10040796;28;20069;-62
2020/12/30 16:56:58;;;;;;;2.70;1.25;;;6.40;72.10;;;;;;10042768;28;20042;-63
2020/12/30 17:01:50;;;;;;;2.30;1.20;;;6.40;72.10;;;;;;10040857;28;20022;-63
2020/12/30 17:06:40;;;;;;;3.10;1.65;;;6.40;72.10;;;;;;10044744;28;20026;-62
2020/12/30 17:11:31;;;;;;;1.85;1.50;;;6.40;72.10;;;;;;10037204;28;20033;-63
2020/12/30 17:16:21;;;;;;;6.30;2.13;;;6.50;72.10;;;;;;10039059;28;21479;-63
2020/12/30 17:21:12;;;;;;;2.70;1.75;;;6.40;72.00;;;;;;10041850;28;20124;-63
2020/12/30 17:26:07;;;;;;;7.05;2.10;;;6.50;72.20;;;;;;10040471;28;20495;-64
2020/12/30 17:30:57;;;;;;;6.38;2.08;;;6.40;72.20;;;;;;10039650;28;20033;-59
2020/12/30 17:35:48;;;;;;;4.65;1.60;;;6.40;72.30;;;;;;10040999;28;20025;-63
2020/12/30 17:40:39;;;;;;;4.50;1.20;;;6.40;72.40;;;;;;10042710;28;20112;-63
2020/12/30 17:45:29;;;;;;;2.45;1.63;;;6.30;72.40;;;;;;10040865;28;20109;-63
2020/12/30 17:50:20;;;;;;;3.92;1.85;;;6.30;72.40;;;;;;10044554;28;20033;-63
2020/12/30 17:55:10;;;;;;;1.52;0.90;;;6.40;72.50;;;;;;10040115;28;20795;-63
2020/12/30 18:00:01;;;;;;;2.08;1.17;;;6.30;72.50;;;;;;10040690;28;20026;-62
2020/12/30 18:04:52;;;;;;;2.10;1.30;;;6.30;72.60;;;;;;10049533;28;20057;-64
2020/12/30 18:09:43;;;;;;;1.80;1.23;;;6.30;72.80;;;;;;10049547;28;20033;-62
2020/12/30 18:14:33;;;;;;;3.05;1.48;;;6.20;73.00;;;;;;10052792;28;20041;-61
2020/12/30 18:19:24;;;;;;;3.13;1.67;;;6.20;73.10;;;;;;10047565;28;20053;-64
2020/12/30 18:24:14;;;;;;;3.97;2.00;;;6.20;73.20;;;;;;10052892;28;20043;-61
2020/12/30 18:29:07;;;;;;;3.47;2.53;;;6.10;73.20;;;;;;10047705;28;20045;-61
2020/12/30 18:33:57;;;;;;;2.65;1.85;;;6.10;73.30;;;;;;10048906;28;20109;-63
2020/12/30 18:38:49;;;;;;;3.63;1.45;;;6.10;73.50;;;;;;10048616;28;20100;-61
2020/12/30 18:43:40;;;;;;;6.00;1.83;;;6.00;73.90;;;;;;10048739;28;20032;-64
2020/12/30 18:48:30;;;;;;;2.90;1.50;;;5.90;74.20;;;;;;10046300;28;20040;-63
2020/12/30 18:53:21;;;;;;;3.17;1.63;;;5.90;74.50;;;;;;10043766;28;20131;-63
2020/12/30 18:58:11;;;;;;;2.15;0.90;;;5.90;74.50;;;;;;10044305;28;20108;-64
2020/12/30 19:03:02;;;;;;;4.68;1.85;;;5.90;74.70;;;;;;10048889;28;20037;-67
2020/12/30 19:07:55;;;;;;;3.80;1.30;;;5.80;75.20;;;;;;10049791;28;20029;-61
2020/12/30 19:12:46;;;;;;;3.63;1.77;;;5.70;75.60;;;;;;10049036;28;20079;-63
2020/12/30 19:17:36;;;;;;;2.80;1.98;;;5.70;75.70;;;;;;10048311;28;20036;-63
2020/12/30 19:22:27;;;;;;;2.92;1.15;;;5.70;75.90;;;;;;10048632;28;20032;-61
2020/12/30 19:27:18;;;;;;;1.92;1.42;;;5.70;75.90;;;;;;10047304;28;20017;-61
2020/12/30 19:32:11;;;;;;;2.45;1.50;;;5.80;75.90;;;;;;10041012;28;20053;-63
2020/12/30 19:37:02;;;;;;;1.75;1.23;;;5.80;76.00;;;;;;10043628;28;20116;-61
2020/12/30 19:41:53;;;;;;;2.45;1.50;;;5.80;76.80;;;;;;10046873;28;20121;-64
2020/12/30 19:46:43;;;;;;;3.08;1.77;;;5.90;76.00;;;;;;10048492;28;20022;-60
2020/12/30 19:51:37;;;;;;;2.45;1.33;;;5.80;76.30;;;;;;10042864;28;20844;-62
2020/12/30 19:56:32;;;;;;;3.47;1.75;;;5.80;76.30;;;;;;10045160;28;20058;-61
2020/12/30 20:01:22;;;;;;;3.08;1.30;;;5.80;76.40;;;;;;10044717;28;20041;-63
2020/12/30 20:06:15;;;;;;;3.17;1.88;;;5.70;77.10;;;;;;10049968;28;20124;-61
2020/12/30 20:11:06;;;;;;;3.55;1.67;;;5.50;76.50;;;;;;10042490;28;20049;-61
2020/12/30 20:15:57;;;;;;;4.40;1.70;;;5.30;76.80;;;;;;10046383;28;20064;-63
2020/12/30 20:20:48;;;;;;;3.00;1.52;;;5.30;76.80;;;;;;10048891;28;20045;-62
2020/12/30 20:25:38;;;;;;;2.72;1.67;;;5.20;76.80;;;;;;10047013;28;20037;-61
2020/12/30 20:30:33;;;;;;;2.10;1.30;;;5.30;76.70;;;;;;10045908;28;20482;-64
2020/12/30 20:35:24;;;;;;;3.00;1.45;;;5.30;76.70;;;;;;10042130;28;20041;-63
2020/12/30 20:40:17;;;;;;;2.10;1.48;;;5.30;76.50;;;;;;10042451;28;20037;-64
2020/12/30 20:45:10;;;;;;;3.90;2.10;;;5.30;76.70;;;;;;10043495;28;21000;-61
2020/12/30 20:50:09;;;;;;;2.63;1.83;;;5.40;76.40;;;;;;10081131;28;20397;-60
2020/12/30 20:55:00;;;;;;;5.78;2.03;;;5.30;76.40;;;;;;10035181;28;20526;-60
2020/12/30 20:59:50;;;;;;;2.88;1.67;;;5.40;76.50;;;;;;10035837;28;20034;-61
2020/12/30 21:04:41;;;;;;;4.45;2.33;;;5.40;76.50;;;;;;10035168;28;20680;-61
2020/12/30 21:09:31;;;;;;;4.10;1.88;;;5.40;76.50;;;;;;10037241;28;20034;-61
2020/12/30 21:14:22;;;;;;;3.97;1.90;;;5.50;76.50;;;;;;10033772;28;20041;-61
2020/12/30 21:19:12;;;;;;;2.70;1.60;;;5.40;76.50;;;;;;10032506;28;20030;-61
2020/12/30 21:24:03;;;;;;;4.57;2.17;;;5.30;76.70;;;;;;10032677;28;20112;-62
2020/12/30 21:28:54;;;;;;;4.40;1.90;;;5.30;77.20;;;;;;10034164;28;20028;-60
2020/12/30 21:33:46;;;;;;;5.22;2.25;;;5.20;77.20;;;;;;10027853;28;20026;-60
2020/12/30 21:38:41;;;;;;;4.03;2.22;;;5.20;77.30;;;;;;10034200;28;20506;-60
2020/12/30 21:43:31;;;;;;;4.70;2.50;;;5.30;77.10;;;;;;10029262;28;20742;-62
2020/12/30 21:48:22;;;;;;;4.32;2.30;;;5.30;77.20;;;;;;10028614;28;20053;-60
2020/12/30 21:53:12;;;;;;;5.55;1.75;;;5.40;77.00;;;;;;10037541;28;20102;-61
2020/12/30 21:58:03;;;;;;;4.35;2.03;;;5.30;77.00;;;;;;10021238;28;20704;-60
2020/12/30 22:02:53;;;;;;;3.45;1.75;;;5.30;77.30;;;;;;10000255;28;20036;-60
2020/12/30 22:07:44;;;;;;;5.75;3.35;;;5.30;77.20;;;;;;10005558;28;20080;-60
2020/12/30 22:12:34;;;;;;;3.78;2.28;;;5.40;77.10;;;;;;10000543;28;20026;-59
2020/12/30 22:17:25;;;;;;;4.18;1.80;;;5.30;77.20;;;;;;10004492;28;20117;-60
2020/12/30 22:22:16;;;;;;;3.45;1.98;;;5.30;77.20;;;;;;9997615;28;20080;-60
2020/12/30 22:27:06;;;;;;;3.67;1.95;;;5.30;77.40;;;;;;9998447;28;20029;-59
2020/12/30 22:31:57;;;;;;;2.78;2.22;;;5.20;77.60;;;;;;10001673;28;20034;-60
2020/12/30 22:36:48;;;;;;;3.80;1.90;;;5.30;77.60;;;;;;10003537;28;20034;-60
2020/12/30 22:41:38;;;;;;;5.20;2.03;;;5.20;77.70;;;;;;10002371;28;20054;-60
2020/12/30 22:46:29;;;;;;;3.55;1.50;;;5.20;78.00;;;;;;10004390;28;20042;-60
2020/12/30 22:51:20;;;;;;;4.63;2.17;;;5.10;78.20;;;;;;9997533;28;20030;-60
2020/12/30 22:56:16;;;;;;;3.33;2.17;;;5.20;78.30;;;;;;10001999;28;20034;-62
2020/12/30 23:01:06;;;;;;;3.63;2.28;;;5.20;78.10;;;;;;10002167;28;20431;-61
2020/12/30 23:05:57;;;;;;;4.75;2.25;;;5.20;79.00;;;;;;10001005;28;20026;-60
2020/12/30 23:10:51;;;;;;;5.75;2.35;;;5.10;78.30;;;;;;9998605;28;20065;-59
2020/12/30 23:15:42;;;;;;;5.55;2.50;;;5.10;78.40;;;;;;9998757;28;20121;-60
2020/12/30 23:20:33;;;;;;;4.82;2.67;;;5.10;78.30;;;;;;9998132;28;20034;-62
2020/12/30 23:25:23;;;;;;;4.35;2.55;;;5.10;78.40;;;;;;10001248;28;20039;-60
2020/12/30 23:30:14;;;;;;;4.40;2.47;;;5.00;78.50;;;;;;10001541;28;20030;-60
2020/12/30 23:35:08;;;;;;;3.92;2.38;;;5.10;78.40;;;;;;10002335;28;20034;-60
2020/12/30 23:39:58;;;;;;;3.75;2.22;;;5.00;78.60;;;;;;10004339;28;20053;-60
2020/12/30 23:44:50;;;;;;;7.82;4.28;;;5.00;79.20;;;;;;10001821;28;20030;-59
2020/12/30 23:49:41;;;;;;;5.60;2.88;;;5.00;78.80;;;;;;9995868;28;20047;-60
2020/12/30 23:54:31;;;;;;;6.38;2.88;;;5.00;79.00;;;;;;9993627;28;20034;-60
2020/12/30 23:59:22;;;;;;;3.72;2.28;;;4.90;78.70;;;;;;9999880;28;20063;-60
